Hayward, CA (94543)

5:18 AM PDT on August 04, 2015 (GMT -0700)
Cherryland | | Change Station
CLOSE
Current Station
Personal Weather Station
Location: Hayward, CA
Elevation: 62 ft
Nearby Weather Stations

Elev 62 ft 37.67 °N, 122.10 °W | Updated 3 minutes ago

Mostly Cloudy
Mostly Cloudy
61.7 °F
Feels Like 61.7 °F
N
1.7
Wind Variable Wind from NNW

Today
High -- | Low -- °F
--% Chance of Precip.
Yesterday
High -- | Low -- °F
Precip. -- in
6:14 AM 8:13 PM
Waning Gibbous, 78% visible
Pressure 29.96 in
Visibility 10.0 miles
Clouds Scattered Clouds 1900 ft
Mostly Cloudy 2500 ft
Mostly Cloudy 3000 ft
Dew Point 58 °F
Humidity 86%
Rainfall 0.00 in
Snow Depth Not available.
UV 0 out of 12
Pollen 4.90 out of 12
Air Quality Not available.
Flu Activity Not available.
SPECI KHWD 041201Z 33003KT 10SM SCT019 BKN025 BKN030 17/13 A2996 RMK AO2

More Conditions Fewer Conditions

Pressure 29.96 in
Visibility 10.0 miles
Clouds Scattered Clouds 1900 ft
Mostly Cloudy 2500 ft
Mostly Cloudy 3000 ft
Dew Point 58 °F
Humidity 86%
Rainfall 0.00 in
Snow Depth Not available.
UV 0 out of 12
Pollen 4.90 out of 12
Air Quality Not available.
Flu Activity Not available.
SPECI KHWD 041201Z 33003KT 10SM SCT019 BKN025 BKN030 17/13 A2996 RMK AO2

More Conditions Fewer Conditions

10-Day Weather Forecast

×

Almanac

Astronomy

Aug. 04, 2015 Rise Set
Actual Time
Civil Twilight
Nautical Twilight
Astronomical Twilight
Moon
Length of Visible Light
Length of Day
Tomorrow will be .
, % of the Moon is Illuminated

Today's Extremes

State Highs State Lows

Community

WunderPhotos

Upload Photos

1,843,907 photos uploaded!

WunderBlogs® & News

Nearby

Air Quality

  Air Quality AQ Index Pollutant
Not available.

Snow Depth

Station Depth Elevation

Earthquake Activity

City Distance Mag. Time & Date
Minimum magnitude displayed is 2.5.

Coastal Water Temperatures

Place Temperature

Stations

Nearby Weather Stations

Station Location Temp. Windchill Dew Point Humidity Wind Precip. Elev Updated Type